Time;durP1;ratioP1;P1;durP2;ratioP2;P2;SDS_P1;SDS_P2;PMS_P1;PMS_P2;Temp;Humidity;BMP_temperature;BMP_pressure;BME280_temperature;BME280_humidity;BME280_pressure;Samples;Min_cycle;Max_cycle;Signal;HPM_P1;HPM_P2
2022/12/03 00:00:52;;;;;;;56.40;28.80;;;4.90;99.90;;;;;;10168998;29;20215;-91
2022/12/03 00:05:54;;;;;;;43.03;22.60;;;5.50;99.90;;;;;;10170226;29;20243;-91
2022/12/03 00:10:56;;;;;;;28.67;15.30;;;6.20;99.90;;;;;;10167430;29;20242;-91
2022/12/03 00:15:59;;;;;;;29.17;15.43;;;6.50;99.90;;;;;;10167923;29;20245;-91
2022/12/03 00:21:01;;;;;;;31.57;16.27;;;6.30;99.90;;;;;;10160268;29;20333;-91
2022/12/03 00:26:04;;;;;;;39.27;22.17;;;6.80;99.90;;;;;;10152542;29;20324;-91
2022/12/03 00:31:07;;;;;;;36.53;20.07;;;6.90;99.90;;;;;;10152812;29;20263;-92
2022/12/03 00:36:09;;;;;;;30.97;16.37;;;6.00;99.90;;;;;;10168381;29;20627;-91
2022/12/03 00:41:12;;;;;;;31.73;17.97;;;6.40;99.90;;;;;;10168312;29;20310;-91
2022/12/03 00:46:14;;;;;;;38.67;19.40;;;7.50;99.90;;;;;;10168896;29;20231;-91
2022/12/03 00:51:22;;;;;;;34.03;17.57;;;7.30;99.90;;;;;;10167306;29;20242;-91
2022/12/03 00:56:25;;;;;;;49.90;27.77;;;7.80;99.90;;;;;;10151941;29;20241;-91
2022/12/03 01:01:27;;;;;;;22.43;13.73;;;6.70;97.10;;;;;;10167518;29;20231;-92
2022/12/03 01:06:30;;;;;;;26.90;14.57;;;7.70;99.90;;;;;;10167204;29;20254;-92
2022/12/03 01:11:38;;;;;;;39.93;21.73;;;7.90;99.90;;;;;;10168008;29;20231;-91
2022/12/03 01:16:40;;;;;;;28.70;16.10;;;7.30;99.90;;;;;;10166840;29;20239;-92
2022/12/03 01:21:48;;;;;;;23.87;11.10;;;6.80;99.90;;;;;;10167999;29;20223;-91
2022/12/03 01:26:51;;;;;;;29.47;15.53;;;8.10;99.90;;;;;;10166386;29;20317;-91
2022/12/03 01:37:15;;;;;;;32.00;17.80;;;7.80;99.20;;;;;;10173725;29;20297;-92
2022/12/03 01:42:22;;;;;;;37.23;18.73;;;7.80;99.90;;;;;;10175422;29;20234;-92
2022/12/03 01:47:33;;;;;;;30.07;16.70;;;7.30;99.90;;;;;;10174980;29;20263;-92
2022/12/03 01:52:38;;;;;;;29.27;15.37;;;7.80;99.90;;;;;;10157407;29;20220;-91
2022/12/03 01:57:44;;;;;;;27.00;15.40;;;8.10;99.90;;;;;;10173346;29;20279;-92
2022/12/03 02:02:57;;;;;;;23.83;12.77;;;7.90;99.60;;;;;;10173507;29;20290;-92
2022/12/03 02:08:00;;;;;;;21.40;12.33;;;7.80;99.90;;;;;;10173680;29;20240;-92
2022/12/03 02:13:09;;;;;;;28.83;16.57;;;8.10;99.90;;;;;;10173051;29;20244;-91
2022/12/03 02:18:11;;;;;;;25.37;14.33;;;7.30;99.90;;;;;;10157728;29;20242;-91
2022/12/03 02:23:31;;;;;;;26.23;13.70;;;7.30;99.90;;;;;;10173123;29;20236;-92
2022/12/03 02:28:33;;;;;;;29.87;15.77;;;8.20;99.90;;;;;;10165855;29;20331;-92
2022/12/03 02:33:37;;;;;;;23.60;13.50;;;7.60;99.90;;;;;;10155438;29;20703;-91
2022/12/03 02:38:41;;;;;;;36.00;19.33;;;8.30;99.90;;;;;;10156098;29;20212;-92
2022/12/03 02:43:44;;;;;;;23.50;12.37;;;8.00;95.70;;;;;;10155494;29;20203;-92
2022/12/03 02:48:46;;;;;;;22.40;12.30;;;8.40;99.90;;;;;;10171756;29;20720;-91
2022/12/03 02:53:52;;;;;;;29.80;16.30;;;8.20;99.90;;;;;;10173168;29;20211;-91
2022/12/03 02:58:58;;;;;;;26.47;15.77;;;7.20;99.90;;;;;;10172693;29;20243;-91
2022/12/03 03:04:03;;;;;;;19.23;11.80;;;8.10;99.00;;;;;;10173660;29;20235;-92
2022/12/03 03:09:06;;;;;;;33.73;16.47;;;7.80;99.90;;;;;;10171088;29;20247;-92
2022/12/03 03:14:08;;;;;;;19.93;11.33;;;7.50;99.90;;;;;;10172003;29;20692;-92
2022/12/03 03:19:11;;;;;;;22.83;11.20;;;7.30;99.90;;;;;;10154783;29;20232;-90
2022/12/03 03:24:13;;;;;;;25.67;13.83;;;7.80;99.90;;;;;;10170665;29;20637;-92
2022/12/03 03:29:16;;;;;;;28.33;15.70;;;8.00;99.90;;;;;;10170384;29;20255;-91
2022/12/03 03:34:19;;;;;;;35.63;17.87;;;7.30;99.90;;;;;;10170584;29;20267;-92
2022/12/03 03:39:21;;;;;;;41.23;21.63;;;7.40;99.90;;;;;;10169663;29;20247;-92
2022/12/03 03:44:24;;;;;;;34.57;17.17;;;6.80;97.40;;;;;;10169739;29;20294;-91
2022/12/03 03:49:27;;;;;;;29.07;14.93;;;7.20;99.90;;;;;;10154208;29;20393;-91
2022/12/03 03:54:30;;;;;;;30.50;15.73;;;7.00;99.90;;;;;;10167362;29;20239;-92
2022/12/03 03:59:33;;;;;;;43.10;20.57;;;7.90;99.90;;;;;;10153758;29;20764;-92
2022/12/03 04:04:35;;;;;;;27.57;14.53;;;7.40;98.40;;;;;;10122820;29;20271;-92
2022/12/03 04:09:38;;;;;;;26.00;14.70;;;7.30;99.90;;;;;;10169051;29;20271;-91
2022/12/03 04:14:40;;;;;;;18.43;10.13;;;8.60;99.90;;;;;;10168572;29;20204;-91
2022/12/03 04:19:43;;;;;;;26.20;15.43;;;8.80;99.90;;;;;;10168954;29;20629;-91
2022/12/03 04:24:45;;;;;;;24.17;13.00;;;8.10;99.90;;;;;;10168335;29;20212;-91
2022/12/03 04:29:48;;;;;;;20.00;12.13;;;8.10;99.90;;;;;;10167587;29;20638;-91
2022/12/03 04:45:32;;;;;;;18.47;11.80;;;7.50;99.90;;;;;;10168576;29;20290;-91
2022/12/03 04:50:35;;;;;;;23.07;13.00;;;7.50;99.90;;;;;;10167356;29;20246;-91
2022/12/03 04:55:38;;;;;;;22.97;13.00;;;7.50;99.90;;;;;;10152102;29;20211;-91
2022/12/03 05:00:40;;;;;;;20.70;12.97;;;7.70;99.90;;;;;;10167989;29;20263;-91
2022/12/03 05:05:43;;;;;;;18.63;10.93;;;7.70;99.90;;;;;;10145891;29;20243;-92
2022/12/03 05:10:45;;;;;;;28.80;16.47;;;7.40;99.90;;;;;;10174978;29;20653;-91
2022/12/03 05:15:48;;;;;;;24.57;15.13;;;7.10;98.20;;;;;;10174889;29;20320;-91
2022/12/03 05:20:50;;;;;;;17.93;12.33;;;7.20;99.90;;;;;;10159938;29;20211;-91
2022/12/03 05:25:55;;;;;;;23.33;13.57;;;7.70;99.90;;;;;;10175193;29;20671;-92
2022/12/03 05:30:57;;;;;;;18.40;11.63;;;6.80;99.90;;;;;;10174546;29;20295;-91
2022/12/03 05:36:00;;;;;;;23.47;12.87;;;7.00;99.90;;;;;;10203543;29;20231;-91
2022/12/03 05:42:52;;;;;;;22.80;12.57;;;6.60;99.50;;;;;;10171026;29;20307;-91
2022/12/03 05:46:25;;;;;;;22.43;14.33;;;7.00;99.90;;;;;;10172193;29;20239;-91
2022/12/03 05:51:28;;;;;;;20.80;11.80;;;7.60;99.90;;;;;;10158985;29;20284;-91
2022/12/03 05:56:31;;;;;;;16.77;10.17;;;7.40;99.90;;;;;;10157652;29;20216;-92
2022/12/03 06:01:34;;;;;;;23.50;14.90;;;7.10;99.90;;;;;;10173958;29;20349;-91
2022/12/03 06:06:36;;;;;;;22.70;12.67;;;7.10;97.30;;;;;;10173248;29;20199;-91
2022/12/03 06:11:39;;;;;;;22.20;12.67;;;7.50;99.90;;;;;;10140942;29;20307;-90
2022/12/03 06:16:41;;;;;;;22.60;13.73;;;7.50;99.40;;;;;;10173177;29;20231;-91
2022/12/03 06:21:44;;;;;;;24.33;14.87;;;6.50;97.20;;;;;;10143778;29;20254;-88
2022/12/03 06:26:47;;;;;;;19.40;11.87;;;6.60;99.90;;;;;;10161980;29;20231;-90
2022/12/03 06:31:49;;;;;;;32.50;17.60;;;7.20;99.90;;;;;;10156430;29;20275;-91
2022/12/03 06:36:52;;;;;;;25.87;14.77;;;6.70;99.90;;;;;;10170759;29;20232;-90
2022/12/03 06:41:55;;;;;;;29.53;16.40;;;7.20;98.00;;;;;;10170384;29;20661;-90
2022/12/03 06:46:58;;;;;;;25.00;14.13;;;7.30;99.90;;;;;;10162966;29;20239;-92
2022/12/03 06:52:00;;;;;;;20.40;12.53;;;7.10;99.30;;;;;;10172338;29;21036;-90
2022/12/03 06:57:03;;;;;;;35.03;20.30;;;6.40;99.90;;;;;;10171604;29;20235;-89
2022/12/03 07:02:06;;;;;;;22.33;13.20;;;6.60;97.30;;;;;;10154789;29;20215;-90
2022/12/03 07:07:08;;;;;;;22.83;13.77;;;7.00;99.90;;;;;;10169950;29;20238;-90
2022/12/03 07:12:11;;;;;;;22.40;13.83;;;6.80;99.90;;;;;;10155619;29;20231;-89
2022/12/03 07:17:13;;;;;;;15.80;9.47;;;6.90;99.90;;;;;;10155123;29;20760;-90
2022/12/03 07:22:16;;;;;;;20.10;11.50;;;7.20;99.90;;;;;;10170413;29;20621;-90
2022/12/03 07:27:19;;;;;;;16.83;11.27;;;8.00;99.90;;;;;;10129448;29;20299;-91
2022/12/03 07:32:21;;;;;;;22.93;13.90;;;8.10;99.90;;;;;;10162230;29;20736;-91
2022/12/03 07:37:24;;;;;;;19.03;11.60;;;8.20;99.40;;;;;;10154169;29;20247;-89
2022/12/03 07:42:27;;;;;;;17.47;12.07;;;8.10;98.60;;;;;;10169362;29;20239;-91
2022/12/03 07:47:29;;;;;;;23.10;13.47;;;8.40;99.90;;;;;;10169573;29;20231;-90
2022/12/03 07:52:32;;;;;;;20.07;12.40;;;8.30;93.40;;;;;;10166658;29;20251;-91
2022/12/03 07:57:34;;;;;;;25.67;15.87;;;8.10;99.10;;;;;;10170330;29;20223;-90
2022/12/03 08:02:37;;;;;;;21.50;14.10;;;7.90;91.20;;;;;;10168052;29;20215;-91
2022/12/03 08:07:40;;;;;;;14.13;8.50;;;7.60;99.90;;;;;;10154290;29;20705;-92
2022/12/03 08:12:43;;;;;;;27.43;15.17;;;8.60;99.90;;;;;;10170968;29;20731;-91
2022/12/03 08:17:57;;;;;;;25.50;14.63;;;8.90;95.20;;;;;;10153299;29;20300;-91
2022/12/03 08:23:05;;;;;;;18.50;11.43;;;8.80;96.10;;;;;;10167733;29;20224;-90
2022/12/03 08:28:15;;;;;;;22.13;14.10;;;8.50;99.90;;;;;;10138343;29;20239;-90
2022/12/03 08:33:29;;;;;;;20.27;13.53;;;8.50;97.30;;;;;;10164035;29;20259;-91
2022/12/03 08:38:32;;;;;;;25.23;15.53;;;8.50;98.50;;;;;;10160130;29;20291;-91
2022/12/03 08:43:40;;;;;;;26.10;16.03;;;8.30;96.90;;;;;;10165797;29;20682;-89
2022/12/03 08:48:44;;;;;;;21.10;13.23;;;8.60;94.60;;;;;;10155337;29;20689;-90
2022/12/03 08:53:57;;;;;;;16.93;10.33;;;8.50;99.80;;;;;;10156907;29;20700;-92
2022/12/03 08:59:29;;;;;;;21.60;13.20;;;8.50;99.20;;;;;;10151869;29;20247;-89
2022/12/03 09:04:47;;;;;;;22.20;12.27;;;8.00;98.30;;;;;;10147476;29;20215;-90
2022/12/03 09:09:50;;;;;;;27.60;17.03;;;8.50;98.10;;;;;;10152666;29;20791;-89
2022/12/03 09:14:52;;;;;;;20.90;12.97;;;8.30;96.30;;;;;;10173781;29;20196;-91
2022/12/03 09:19:56;;;;;;;32.70;18.97;;;8.60;97.90;;;;;;10186453;29;20224;-90
2022/12/03 09:24:59;;;;;;;27.93;15.50;;;8.40;90.90;;;;;;10171165;29;20207;-89
2022/12/03 09:30:03;;;;;;;29.23;16.60;;;8.80;94.60;;;;;;10174012;29;20278;-90
2022/12/03 09:35:07;;;;;;;19.13;11.47;;;9.10;94.50;;;;;;10155601;29;20231;-89
2022/12/03 09:40:11;;;;;;;25.90;15.57;;;8.40;99.60;;;;;;10150103;29;20245;-90
2022/12/03 09:45:14;;;;;;;36.97;21.80;;;8.70;99.60;;;;;;10117308;29;20282;-91
2022/12/03 09:50:21;;;;;;;21.63;13.30;;;8.40;90.40;;;;;;10146395;29;20227;-89
2022/12/03 09:55:27;;;;;;;24.03;15.93;;;8.20;99.30;;;;;;10164584;29;20216;-90
2022/12/03 10:00:29;;;;;;;20.50;13.03;;;8.20;96.00;;;;;;10163502;29;20725;-90
2022/12/03 10:05:33;;;;;;;37.33;21.37;;;8.50;97.90;;;;;;10117448;29;20299;-90
2022/12/03 10:10:38;;;;;;;24.97;14.57;;;8.10;92.70;;;;;;10138566;29;20351;-90
2022/12/03 10:15:41;;;;;;;30.87;17.17;;;8.10;99.90;;;;;;10157393;29;20235;-90
2022/12/03 10:20:44;;;;;;;24.03;14.07;;;8.10;99.90;;;;;;10172264;29;20696;-90
2022/12/03 10:25:53;;;;;;;18.93;11.40;;;8.50;99.90;;;;;;10128242;29;20248;-90
2022/12/03 10:30:56;;;;;;;29.03;17.83;;;9.20;99.90;;;;;;10130509;29;20303;-91
2022/12/03 10:36:25;;;;;;;33.03;18.77;;;8.40;97.20;;;;;;10115412;29;20273;-90
2022/12/03 10:41:28;;;;;;;22.17;15.30;;;8.80;96.50;;;;;;10132065;29;20691;-91
2022/12/03 10:46:31;;;;;;;16.63;10.90;;;8.70;95.70;;;;;;10130567;29;20310;-91
2022/12/03 10:51:36;;;;;;;35.07;19.07;;;9.00;99.90;;;;;;10165253;29;20255;-91
2022/12/03 10:56:43;;;;;;;33.33;18.23;;;8.90;94.90;;;;;;9814710;29;10000540;-90
2022/12/03 11:01:51;;;;;;;19.77;11.47;;;8.70;94.50;;;;;;10155053;29;20247;-90
2022/12/03 11:06:54;;;;;;;26.30;15.30;;;9.10;99.90;;;;;;10155193;29;20211;-91
2022/12/03 11:12:26;;;;;;;24.20;14.00;;;9.40;97.10;;;;;;10158459;29;20266;-91
2022/12/03 11:17:40;;;;;;;38.83;24.63;;;9.50;94.50;;;;;;10171566;29;20227;-90
2022/12/03 11:22:51;;;;;;;31.83;19.07;;;9.70;94.60;;;;;;10138499;29;20219;-92
2022/12/03 11:28:11;;;;;;;30.77;16.27;;;9.40;94.50;;;;;;10183101;29;20203;-94
2022/12/03 11:33:23;;;;;;;27.33;15.97;;;9.20;97.10;;;;;;10232832;29;20235;-93
2022/12/03 11:44:26;;;;;;;24.70;13.43;;;9.90;94.20;;;;;;11293855;23;20272;-94
2022/12/03 11:49:34;;;;;;;21.10;11.63;;;10.00;94.80;;;;;;10141866;29;20236;-92
2022/12/03 11:54:37;;;;;;;37.77;20.63;;;9.70;95.80;;;;;;10118432;29;20765;-93
2022/12/03 11:59:57;;;;;;;36.33;20.00;;;9.70;91.20;;;;;;10117246;29;20209;-92
2022/12/03 12:05:26;;;;;;;22.53;12.43;;;9.00;91.10;;;;;;10144008;29;20207;-92
2022/12/03 12:10:46;;;;;;;21.77;13.30;;;8.40;98.70;;;;;;10131623;29;20232;-92
2022/12/03 12:15:49;;;;;;;28.23;15.20;;;8.60;99.90;;;;;;10139510;29;20263;-92
2022/12/03 12:20:51;;;;;;;31.20;16.67;;;9.20;96.10;;;;;;10133979;29;20216;-91
2022/12/03 12:26:05;;;;;;;42.13;22.50;;;9.60;93.70;;;;;;10137477;29;20210;-91
2022/12/03 12:31:11;;;;;;;23.27;14.40;;;8.80;94.30;;;;;;10136335;29;20219;-92
2022/12/03 12:36:13;;;;;;;30.40;18.50;;;9.00;99.90;;;;;;10127445;29;20212;-91
2022/12/03 12:41:17;;;;;;;42.80;23.53;;;8.90;95.20;;;;;;10106232;29;20205;-93
2022/12/03 12:46:23;;;;;;;34.47;17.70;;;8.60;93.60;;;;;;10112377;29;20296;-91
2022/12/03 12:51:47;;;;;;;27.53;15.73;;;8.80;97.80;;;;;;10134324;29;20228;-92
2022/12/03 12:56:50;;;;;;;38.60;21.77;;;9.10;99.30;;;;;;10136708;29;20208;-91
2022/12/03 13:01:52;;;;;;;34.93;18.77;;;9.00;96.80;;;;;;10146274;29;20209;-93
2022/12/03 13:06:55;;;;;;;36.03;20.97;;;8.90;97.10;;;;;;10138490;29;20278;-93
2022/12/03 13:12:02;;;;;;;30.27;18.50;;;8.90;97.20;;;;;;10117175;29;20231;-91
2022/12/03 13:17:22;;;;;;;26.17;15.13;;;8.00;98.30;;;;;;10129725;29;20271;-91
2022/12/03 13:22:24;;;;;;;42.70;24.70;;;8.20;98.20;;;;;;10129636;29;20658;-91
2022/12/03 13:27:28;;;;;;;37.83;21.20;;;8.20;94.70;;;;;;10131633;29;20646;-90
2022/12/03 13:32:34;;;;;;;32.83;19.20;;;7.60;98.10;;;;;;10137308;29;20669;-90
2022/12/03 13:37:37;;;;;;;58.70;26.73;;;8.00;99.90;;;;;;10136648;29;20232;-91
2022/12/03 13:42:45;;;;;;;46.90;24.83;;;7.50;95.60;;;;;;10136333;29;20292;-90
2022/12/03 13:47:52;;;;;;;43.37;23.13;;;7.70;98.60;;;;;;10136094;29;20301;-90
2022/12/03 13:52:55;;;;;;;27.83;15.67;;;8.10;99.40;;;;;;10135633;29;20307;-91
2022/12/03 13:57:57;;;;;;;27.67;14.37;;;8.10;99.90;;;;;;10133345;29;20789;-91
2022/12/03 14:03:01;;;;;;;48.20;27.53;;;8.60;99.70;;;;;;10123405;29;20239;-90
2022/12/03 14:08:04;;;;;;;30.67;17.60;;;8.70;96.60;;;;;;10133056;29;20250;-90
2022/12/03 14:13:07;;;;;;;42.57;24.03;;;8.50;99.50;;;;;;10133864;29;20793;-90
2022/12/03 14:18:10;;;;;;;51.63;24.13;;;9.10;97.80;;;;;;10124611;29;20288;-90
2022/12/03 14:23:12;;;;;;;30.83;17.60;;;8.80;93.70;;;;;;10131889;29;20276;-91
2022/12/03 14:28:14;;;;;;;41.30;22.20;;;9.10;97.40;;;;;;10132008;29;20251;-91
2022/12/03 14:33:17;;;;;;;47.27;25.77;;;8.80;99.90;;;;;;10135568;29;20260;-91
2022/12/03 14:38:20;;;;;;;41.60;23.20;;;8.80;99.90;;;;;;10133901;29;20624;-90
2022/12/03 14:43:22;;;;;;;46.60;23.07;;;8.90;99.90;;;;;;10125840;29;20260;-90
2022/12/03 14:48:26;;;;;;;40.33;24.23;;;8.80;99.90;;;;;;10125741;29;20244;-91
2022/12/03 14:53:28;;;;;;;48.00;25.90;;;9.00;99.90;;;;;;10128969;29;20267;-89
2022/12/03 14:58:33;;;;;;;45.17;24.57;;;9.30;99.90;;;;;;9789998;29;10000600;-90
2022/12/03 15:03:35;;;;;;;60.80;32.63;;;8.90;99.90;;;;;;10132340;29;20240;-87
2022/12/03 15:08:37;;;;;;;122.80;63.07;;;5.80;99.90;;;;;;10125682;29;20305;-87
2022/12/03 15:13:40;;;;;;;173.47;91.83;;;3.90;99.90;;;;;;10129435;29;20264;-87
2022/12/03 15:18:42;;;;;;;96.97;51.10;;;2.40;99.90;;;;;;10131309;29;20288;-87
2022/12/03 15:23:45;;;;;;;111.23;56.30;;;1.80;99.90;;;;;;10129773;29;20303;-87
2022/12/03 15:28:47;;;;;;;101.17;47.03;;;1.30;99.90;;;;;;10132862;29;20264;-88
2022/12/03 15:33:50;;;;;;;93.33;47.20;;;0.80;99.90;;;;;;10129678;29;20264;-87
2022/12/03 15:38:52;;;;;;;83.43;39.80;;;0.60;99.90;;;;;;10127580;29;20744;-87
2022/12/03 15:44:02;;;;;;;101.23;52.73;;;0.40;99.90;;;;;;10127471;29;20267;-87
2022/12/03 15:49:05;;;;;;;135.73;55.83;;;0.30;99.90;;;;;;10128743;29;20290;-87
2022/12/03 15:54:07;;;;;;;146.13;69.53;;;0.10;99.90;;;;;;10129630;29;20331;-87
2022/12/03 15:59:10;;;;;;;126.70;61.53;;;0.10;99.90;;;;;;10128874;29;20284;-87
2022/12/03 16:04:13;;;;;;;101.83;52.73;;;0.20;99.90;;;;;;10128704;29;20239;-87
2022/12/03 16:09:15;;;;;;;97.23;49.27;;;0.20;99.90;;;;;;10127706;29;20240;-88
2022/12/03 16:14:19;;;;;;;89.47;48.53;;;0.00;99.90;;;;;;10126699;29;20267;-88
2022/12/03 16:19:21;;;;;;;112.43;54.87;;;0.00;99.90;;;;;;10131481;29;20661;-88
2022/12/03 16:24:24;;;;;;;80.60;39.70;;;0.00;99.90;;;;;;10137894;29;20938;-88
2022/12/03 16:29:26;;;;;;;96.43;42.93;;;-0.10;99.90;;;;;;10132499;29;20724;-88
2022/12/03 16:34:29;;;;;;;98.27;48.20;;;-0.10;99.90;;;;;;10117006;29;20240;-88
2022/12/03 16:39:31;;;;;;;96.27;46.93;;;-0.20;99.90;;;;;;10131046;29;20269;-88
2022/12/03 16:50:08;;;;;;;97.43;48.00;;;-0.30;99.90;;;;;;10167169;29;20227;-87
2022/12/03 16:55:19;;;;;;;94.53;46.43;;;-0.30;99.90;;;;;;10173200;29;20235;-88
2022/12/03 17:00:21;;;;;;;107.00;51.67;;;-0.30;99.90;;;;;;10172763;29;20294;-88
2022/12/03 17:05:24;;;;;;;108.27;51.43;;;-0.40;99.90;;;;;;10161734;29;20254;-88
2022/12/03 17:10:26;;;;;;;74.10;36.13;;;-0.40;99.90;;;;;;10178162;29;20207;-88
2022/12/03 17:15:30;;;;;;;94.20;47.30;;;-0.20;99.90;;;;;;10176197;29;20584;-88
2022/12/03 17:20:33;;;;;;;89.67;42.70;;;;;;;;;;10173957;29;20214;-87
2022/12/03 17:25:36;;;;;;;124.87;60.50;;;-0.20;99.90;;;;;;10138660;29;20223;-87
2022/12/03 17:30:38;;;;;;;101.80;49.70;;;-0.20;99.90;;;;;;10133067;29;20234;-85
2022/12/03 17:35:42;;;;;;;103.33;50.90;;;;;;;;;;10133919;29;20255;-87
2022/12/03 17:40:44;;;;;;;106.50;53.07;;;1.40;99.90;;;;;;10132398;29;20257;-87
2022/12/03 17:45:47;;;;;;;109.57;54.20;;;1.20;99.90;;;;;;10137020;29;20220;-87
2022/12/03 17:50:49;;;;;;;96.23;46.73;;;0.70;99.90;;;;;;10137343;29;20208;-85
2022/12/03 17:55:52;;;;;;;74.43;35.73;;;0.60;99.90;;;;;;10138387;29;20272;-85
2022/12/03 18:00:54;;;;;;;93.97;46.63;;;0.50;99.90;;;;;;10142833;29;20260;-86
2022/12/03 18:06:04;;;;;;;93.93;49.20;;;0.50;99.90;;;;;;10157441;29;20200;-86
2022/12/03 18:11:06;;;;;;;100.73;49.33;;;0.30;99.90;;;;;;10158516;29;20807;-85
2022/12/03 18:16:09;;;;;;;88.90;45.00;;;0.20;99.90;;;;;;10143427;29;20217;-86
2022/12/03 18:21:12;;;;;;;95.10;45.93;;;0.10;99.90;;;;;;10147424;29;20240;-86
2022/12/03 18:26:14;;;;;;;102.40;48.67;;;0.10;99.90;;;;;;10180009;29;20243;-86
2022/12/03 18:31:21;;;;;;;98.70;44.40;;;0.10;99.90;;;;;;10154502;29;20255;-86
2022/12/03 18:36:28;;;;;;;97.27;48.07;;;0.00;99.90;;;;;;10158972;29;20207;-86
2022/12/03 18:41:32;;;;;;;96.63;46.20;;;0.00;99.90;;;;;;10159949;29;20214;-86
2022/12/03 18:46:34;;;;;;;92.87;45.57;;;0.00;99.90;;;;;;10149231;29;20236;-86
2022/12/03 18:51:57;;;;;;;94.47;49.57;;;0.00;99.90;;;;;;10145696;29;20226;-85
2022/12/03 18:57:01;;;;;;;89.20;42.57;;;0.00;99.90;;;;;;10161933;29;20221;-86
2022/12/03 19:02:05;;;;;;;103.43;53.00;;;-0.10;99.90;;;;;;10159667;29;20191;-86
2022/12/03 19:07:08;;;;;;;97.70;50.37;;;;;;;;;;10179416;29;20193;-85
2022/12/03 19:12:11;;;;;;;87.47;46.33;;;0.10;99.90;;;;;;10185236;29;20228;-86
2022/12/03 19:17:16;;;;;;;100.97;50.27;;;0.30;99.90;;;;;;10189080;29;20217;-86
2022/12/03 19:22:18;;;;;;;114.57;53.27;;;0.20;99.90;;;;;;10176393;29;20200;-85
2022/12/03 19:27:21;;;;;;;109.50;53.33;;;0.10;99.90;;;;;;10184924;29;20193;-86
2022/12/03 19:32:23;;;;;;;108.73;54.80;;;0.10;99.90;;;;;;10185261;29;20207;-86
2022/12/03 19:37:26;;;;;;;117.80;57.73;;;0.10;99.90;;;;;;10181405;29;20232;-85
2022/12/03 19:42:29;;;;;;;96.90;49.40;;;0.10;99.90;;;;;;10181296;29;20260;-84
2022/12/03 19:47:33;;;;;;;91.87;45.23;;;0.10;99.90;;;;;;10185277;29;20206;-86
2022/12/03 19:52:36;;;;;;;102.23;51.97;;;0.30;99.90;;;;;;10160691;29;20230;-86
2022/12/03 19:57:38;;;;;;;128.17;63.43;;;0.30;99.90;;;;;;10169033;29;20228;-86
2022/12/03 20:02:41;;;;;;;181.50;84.83;;;0.20;99.90;;;;;;10176425;29;20217;-85
2022/12/03 20:07:43;;;;;;;150.20;73.53;;;0.20;99.90;;;;;;10178795;29;20180;-86
2022/12/03 20:12:46;;;;;;;92.60;47.10;;;0.20;99.90;;;;;;10183049;29;20228;-87
2022/12/03 20:17:48;;;;;;;113.33;59.70;;;0.30;99.90;;;;;;10183375;29;20216;-87
2022/12/03 20:22:51;;;;;;;96.13;50.43;;;0.20;99.90;;;;;;10183185;29;20189;-86
2022/12/03 20:27:54;;;;;;;81.80;41.50;;;0.30;99.90;;;;;;10182943;29;20189;-86
2022/12/03 20:32:56;;;;;;;79.83;41.00;;;0.50;99.90;;;;;;10204892;29;20212;-87
2022/12/03 20:37:58;;;;;;;86.10;42.10;;;0.40;99.90;;;;;;10177986;29;20204;-85
2022/12/03 20:43:01;;;;;;;80.43;40.27;;;0.40;99.90;;;;;;10174581;29;20223;-85
2022/12/03 20:48:04;;;;;;;89.37;42.93;;;0.40;99.90;;;;;;10187260;29;20196;-86
2022/12/03 20:53:06;;;;;;;95.40;49.73;;;0.80;99.90;;;;;;10159882;29;20228;-86
2022/12/03 20:58:27;;;;;;;100.20;52.27;;;0.80;99.90;;;;;;10140745;29;20208;-86
2022/12/03 21:03:29;;;;;;;104.17;53.97;;;0.70;99.90;;;;;;10146500;29;20283;-86
2022/12/03 21:08:32;;;;;;;107.20;52.47;;;0.70;99.90;;;;;;10149301;29;20241;-85
2022/12/03 21:13:44;;;;;;;87.23;47.30;;;0.70;99.90;;;;;;10157024;29;20228;-87
2022/12/03 21:18:46;;;;;;;85.23;40.13;;;0.70;99.90;;;;;;10138195;29;20832;-86
2022/12/03 21:23:49;;;;;;;103.20;50.53;;;0.60;99.90;;;;;;10130820;29;20213;-86
2022/12/03 21:28:52;;;;;;;87.20;39.37;;;0.70;99.90;;;;;;10129841;29;20204;-87
2022/12/03 21:33:56;;;;;;;90.53;46.20;;;0.60;99.90;;;;;;10138515;29;20292;-86
2022/12/03 21:38:58;;;;;;;73.17;37.17;;;1.00;99.90;;;;;;10129307;29;20754;-87
2022/12/03 21:44:02;;;;;;;98.53;46.33;;;1.90;99.90;;;;;;10134005;29;20292;-87
2022/12/03 21:49:04;;;;;;;88.23;46.67;;;1.30;99.90;;;;;;10140049;29;20209;-86
2022/12/03 21:54:06;;;;;;;66.67;30.40;;;1.50;99.90;;;;;;10146741;29;20228;-86
2022/12/03 21:59:09;;;;;;;92.93;45.67;;;1.20;99.90;;;;;;10149684;29;20256;-86
2022/12/03 22:04:11;;;;;;;69.03;33.27;;;2.20;99.90;;;;;;10148443;29;20346;-87
2022/12/03 22:09:14;;;;;;;94.43;45.63;;;1.50;99.90;;;;;;10150793;29;20216;-86
2022/12/03 22:14:16;;;;;;;63.27;33.13;;;2.00;99.90;;;;;;10148884;29;20224;-86
2022/12/03 22:19:22;;;;;;;85.53;47.00;;;2.60;99.90;;;;;;10143026;29;20574;-85
2022/12/03 22:24:24;;;;;;;88.57;45.90;;;2.70;99.90;;;;;;10132161;29;20221;-86
2022/12/03 22:29:26;;;;;;;78.33;38.23;;;2.20;99.90;;;;;;10132426;29;20395;-86
2022/12/03 22:34:29;;;;;;;79.10;40.83;;;2.10;99.90;;;;;;10153915;29;20227;-86
2022/12/03 22:39:32;;;;;;;86.57;43.77;;;2.80;99.90;;;;;;10149807;29;20364;-86
2022/12/03 22:44:34;;;;;;;83.27;44.27;;;2.40;99.90;;;;;;10154731;29;20271;-86
2022/12/03 22:49:37;;;;;;;80.63;40.77;;;2.40;99.90;;;;;;10146124;29;20276;-86
2022/12/03 22:54:42;;;;;;;70.13;36.43;;;2.40;99.90;;;;;;10154679;29;20228;-85
2022/12/03 22:59:45;;;;;;;90.50;42.60;;;2.10;99.90;;;;;;10149403;29;20207;-86
2022/12/03 23:04:47;;;;;;;76.70;37.33;;;2.00;99.90;;;;;;10141870;29;20674;-85
2022/12/03 23:09:50;;;;;;;52.70;29.30;;;2.80;99.90;;;;;;10117521;29;20216;-86
2022/12/03 23:14:54;;;;;;;86.20;45.10;;;2.80;99.90;;;;;;10137492;29;20256;-86
2022/12/03 23:19:56;;;;;;;83.20;42.87;;;2.50;99.90;;;;;;10136990;29;20264;-86
2022/12/03 23:24:59;;;;;;;66.07;33.87;;;2.20;99.90;;;;;;10135765;29;20221;-86
2022/12/03 23:30:02;;;;;;;89.13;43.23;;;1.90;99.90;;;;;;10134369;29;20220;-86
2022/12/03 23:35:05;;;;;;;69.30;34.50;;;1.70;99.90;;;;;;10136629;29;20300;-87
2022/12/03 23:40:08;;;;;;;55.97;31.80;;;1.60;99.90;;;;;;10136130;29;20265;-85
2022/12/03 23:45:10;;;;;;;77.87;38.93;;;1.80;99.90;;;;;;10133961;29;20240;-86
2022/12/03 23:50:13;;;;;;;71.03;36.83;;;2.80;99.90;;;;;;10123521;29;20209;-86
2022/12/03 23:55:16;;;;;;;78.07;38.57;;;3.10;99.90;;;;;;10128914;29;20296;-86
